createdAt,value
2024-05-09T00:00:15.486Z,102882.59
2024-05-09T00:00:49.787Z,102881.78
2024-05-09T00:01:21.473Z,102888.38
2024-05-09T00:01:53.032Z,102889.50
2024-05-09T00:02:24.708Z,102886.34
2024-05-09T00:02:56.380Z,102882.81
2024-05-09T00:03:28.038Z,102887.47
2024-05-09T00:03:59.593Z,102880.41
2024-05-09T00:04:31.175Z,102880.72
2024-05-09T00:05:03.097Z,102884.25
2024-05-09T00:05:34.894Z,102887.78
2024-05-09T00:06:09.373Z,102880.72
2024-05-09T00:06:41.009Z,102878.00
2024-05-09T00:07:12.550Z,102879.94
2024-05-09T00:07:44.178Z,102881.84
2024-05-09T00:08:34.646Z,102879.44
2024-05-09T00:09:06.247Z,102880.25
2024-05-09T00:09:37.900Z,102881.38
2024-05-09T00:10:15.148Z,102878.97
2024-05-09T00:10:54.281Z,102880.56
2024-05-09T00:11:25.900Z,102880.91
2024-05-09T00:11:57.661Z,102879.31
2024-05-09T00:12:29.329Z,102877.69
2024-05-09T00:13:00.893Z,102879.63
2024-05-09T00:13:32.433Z,102882.34
2024-05-09T00:14:04.009Z,102872.56
2024-05-09T00:14:35.587Z,102879.94
2024-05-09T00:15:07.536Z,102877.22
2024-05-09T00:15:39.190Z,102878.69
2024-05-09T00:16:10.882Z,102877.88
2024-05-09T00:16:42.523Z,102880.59
2024-05-09T00:17:14.235Z,102875.94
2024-05-09T00:17:45.884Z,102870.00
2024-05-09T00:18:17.712Z,102874.69
2024-05-09T00:18:49.519Z,102876.28
2024-05-09T00:19:21.443Z,102873.09
2024-05-09T00:19:53.016Z,102873.09
2024-05-09T00:20:33.572Z,102879.69
2024-05-09T00:21:10.139Z,102867.50
2024-05-09T00:21:43.352Z,102875.19
2024-05-09T00:22:14.861Z,102878.25
2024-05-09T00:22:46.408Z,102875.03
2024-05-09T00:23:18.084Z,102876.16
2024-05-09T00:23:49.624Z,102874.56
2024-05-09T00:24:21.163Z,102875.69
2024-05-09T00:24:52.659Z,102872.16
2024-05-09T00:25:24.153Z,102866.72
2024-05-09T00:25:55.670Z,102876.03
2024-05-09T00:26:27.369Z,102872.50
2024-05-09T00:26:58.950Z,102873.28
2024-05-09T00:27:30.486Z,102874.41
2024-05-09T00:28:02.023Z,102872.50
2024-05-09T00:28:33.540Z,102870.09
2024-05-09T00:29:05.145Z,102869.28
2024-05-09T00:29:36.703Z,102867.69
2024-05-09T00:30:14.280Z,102859.06
2024-05-09T00:30:49.029Z,102860.97
2024-05-09T00:31:20.535Z,102862.09
2024-05-09T00:31:52.136Z,102860.50
2024-05-09T00:32:42.471Z,102862.44
2024-05-09T00:33:14.232Z,102869.47
2024-05-09T00:33:46.057Z,102866.28
2024-05-09T00:34:17.853Z,102865.16
2024-05-09T00:34:49.447Z,102861.94
2024-05-09T00:35:21.238Z,102861.16
2024-05-09T00:35:52.855Z,102861.47
2024-05-09T00:36:24.386Z,102861.47
2024-05-09T00:36:55.889Z,102859.88
2024-05-09T00:38:35.172Z,102857.16
2024-05-09T00:39:06.743Z,102863.72
2024-05-09T00:39:38.318Z,102859.41
2024-05-09T00:40:18.282Z,102857.78
2024-05-09T00:40:54.364Z,102862.44
2024-05-09T00:41:25.970Z,102851.53
2024-05-09T00:42:16.595Z,102853.47
2024-05-09T00:42:48.114Z,102854.59
2024-05-09T00:43:19.670Z,102854.91
2024-05-09T00:43:51.208Z,102856.03
2024-05-09T00:44:22.858Z,102857.97
2024-05-09T00:44:54.444Z,102853.63
2024-05-09T00:45:25.947Z,102852.06
2024-05-09T00:45:57.564Z,102857.50
2024-05-09T00:46:48.264Z,102857.81
2024-05-09T00:47:19.982Z,102853.47
2024-05-09T00:47:51.974Z,102848.03
2024-05-09T00:48:23.800Z,102851.88
2024-05-09T00:48:55.837Z,102856.19
2024-05-09T00:49:28.353Z,102850.28
2024-05-09T00:50:02.458Z,102851.88
2024-05-09T00:50:54.349Z,102849.47
2024-05-09T00:51:26.574Z,102845.94
2024-05-09T00:51:58.861Z,102850.59
2024-05-09T00:52:30.781Z,102849.00
2024-05-09T00:53:02.564Z,102855.56
2024-05-09T00:53:34.357Z,102849.31
2024-05-09T00:54:06.583Z,102849.63
2024-05-09T00:54:38.231Z,102843.06
2024-05-09T00:55:09.749Z,102842.56
2024-05-09T00:55:42.297Z,102848.03
2024-05-09T00:56:14.810Z,102850.75
2024-05-09T00:56:47.460Z,102849.97
2024-05-09T00:57:18.993Z,102846.44
2024-05-09T00:57:51.462Z,102850.28
2024-05-09T00:59:32.179Z,102851.41
2024-05-09T01:00:06.061Z,102852.53
2024-05-09T01:00:41.353Z,102850.13
2024-05-09T01:01:13.829Z,102851.25
2024-05-09T01:01:46.341Z,102851.25
2024-05-09T01:02:18.143Z,102848.88
2024-05-09T01:03:09.742Z,102855.91
2024-05-09T01:03:43.268Z,102851.59
2024-05-09T01:04:33.896Z,102853.53
2024-05-09T01:05:05.978Z,102850.78
2024-05-09T01:05:38.950Z,102853.84
2024-05-09T01:06:10.736Z,102846.78
2024-05-09T01:06:42.860Z,102847.91
2024-05-09T01:07:14.448Z,102849.03
2024-05-09T01:07:46.055Z,102852.09
2024-05-09T01:08:18.180Z,102848.88
2024-05-09T01:08:49.911Z,102855.94
2024-05-09T01:09:21.425Z,102853.53
2024-05-09T01:09:53.060Z,102846.16
2024-05-09T01:10:32.202Z,102858.97
2024-05-09T01:11:06.498Z,102850.00
2024-05-09T01:11:39.112Z,102852.25
2024-05-09T01:12:10.897Z,102851.13
2024-05-09T01:12:42.468Z,102851.44
2024-05-09T01:13:14.256Z,102852.56
2024-05-09T01:13:46.248Z,102854.47
2024-05-09T01:14:18.166Z,102856.41
2024-05-09T01:14:49.808Z,102847.75
2024-05-09T01:15:40.087Z,102851.75
2024-05-09T01:16:13.158Z,102849.34
2024-05-09T01:16:44.913Z,102850.47
2024-05-09T01:17:17.162Z,102852.41
2024-05-09T01:17:48.983Z,102854.31
2024-05-09T01:18:39.884Z,102842.31
2024-05-09T01:19:19.904Z,102848.06
2024-05-09T01:19:51.531Z,102846.16
2024-05-09T01:20:32.002Z,102846.50
2024-05-09T01:21:11.670Z,102845.69
2024-05-09T01:21:43.787Z,102854.19
2024-05-09T01:22:15.368Z,102850.19
2024-05-09T01:22:47.877Z,102852.91
2024-05-09T01:23:19.669Z,102854.84
2024-05-09T01:23:51.252Z,102855.97
2024-05-09T01:24:22.780Z,102857.88
2024-05-09T01:24:54.325Z,102848.91
2024-05-09T01:26:14.659Z,102850.81
2024-05-09T01:26:46.212Z,102851.94
2024-05-09T01:27:18.157Z,102852.25
2024-05-09T01:27:49.642Z,102846.03
2024-05-09T01:28:21.217Z,102847.94
2024-05-09T01:28:52.750Z,102846.34
2024-05-09T01:29:24.445Z,102842.81
2024-05-09T01:29:56.026Z,102842.00
2024-05-09T01:30:34.090Z,102841.22
2024-05-09T01:31:07.920Z,102843.63
2024-05-09T01:31:39.490Z,102842.00
2024-05-09T01:32:11.241Z,102840.41
2024-05-09T01:32:43.369Z,102838.47
2024-05-09T01:33:33.807Z,102841.22
2024-05-09T01:34:06.297Z,102837.69
2024-05-09T01:34:37.852Z,102841.84
2024-05-09T01:35:09.464Z,102840.25
2024-05-09T01:35:42.558Z,102830.47
2024-05-09T01:36:14.652Z,102833.88
2024-05-09T01:36:46.125Z,102840.44
2024-05-09T01:37:17.635Z,102842.34
2024-05-09T01:37:49.930Z,102835.94
2024-05-09T01:38:21.482Z,102840.25
2024-05-09T01:38:53.014Z,102832.72
2024-05-09T01:39:24.533Z,102831.94
2024-05-09T01:40:18.638Z,102833.06
2024-05-09T01:40:56.405Z,102831.94
2024-05-09T01:41:28.080Z,102840.41
2024-05-09T01:41:59.663Z,102833.38
2024-05-09T01:42:31.205Z,102833.69
2024-05-09T01:43:02.731Z,102838.34
2024-05-09T01:43:34.288Z,102835.59
2024-05-09T01:44:05.933Z,102840.25
2024-05-09T01:44:37.578Z,102833.22
2024-05-09T01:45:09.763Z,102840.25
2024-05-09T01:45:41.749Z,102837.53
2024-05-09T01:46:15.294Z,102840.25
2024-05-09T01:46:46.866Z,102836.72
2024-05-09T01:47:37.283Z,102839.94
2024-05-09T01:48:10.450Z,102834.00
2024-05-09T01:48:43.593Z,102843.28
2024-05-09T01:50:06.797Z,102838.97
2024-05-09T01:50:42.505Z,102838.50
2024-05-09T01:51:14.934Z,102835.31
2024-05-09T01:51:46.452Z,102837.53
2024-05-09T01:52:17.950Z,102834.34
2024-05-09T01:52:49.470Z,102831.94
2024-05-09T01:53:21.129Z,102834.66
2024-05-09T01:53:54.578Z,102836.59
2024-05-09T01:54:26.076Z,102833.38
2024-05-09T01:54:57.566Z,102834.16
2024-05-09T01:56:18.163Z,102827.94
2024-05-09T01:56:49.754Z,102836.09
2024-05-09T01:57:39.998Z,102827.13
2024-05-09T01:58:30.089Z,102843.47
2024-05-09T01:59:01.994Z,102844.56
2024-05-09T01:59:33.580Z,102836.41
2024-05-09T02:00:07.644Z,102840.25
2024-05-09T02:00:42.412Z,102837.84
2024-05-09T02:01:14.932Z,102837.84
2024-05-09T02:01:56.514Z,102837.03
2024-05-09T02:02:29.473Z,102838.97
2024-05-09T02:03:01.575Z,102840.88
2024-05-09T02:03:33.350Z,102845.53
2024-05-09T02:04:23.595Z,102846.34
2024-05-09T02:04:55.367Z,102834.63
2024-05-09T02:05:27.080Z,102843.13
2024-05-09T02:05:58.631Z,102835.31
2024-05-09T02:06:30.141Z,102839.94
2024-05-09T02:07:01.694Z,102834.50
2024-05-09T02:07:35.125Z,102838.81
2024-05-09T02:08:07.065Z,102837.22
2024-05-09T02:08:38.695Z,102843.78
2024-05-09T02:09:10.260Z,102832.91
2024-05-09T02:09:57.110Z,102841.88
2024-05-09T02:10:32.583Z,102833.22
2024-05-09T02:11:05.084Z,102839.47
2024-05-09T02:11:47.245Z,102836.75
2024-05-09T02:12:31.410Z,102835.94
2024-05-09T02:13:03.013Z,102838.97
2024-05-09T02:13:34.505Z,102835.44
2024-05-09T02:14:06.931Z,102837.69
2024-05-09T02:14:38.536Z,102835.78
2024-05-09T02:15:10.093Z,102830.31
2024-05-09T02:16:00.273Z,102837.69
2024-05-09T02:16:31.752Z,102833.84
2024-05-09T02:17:03.434Z,102834.16
2024-05-09T02:17:35.064Z,102831.75
2024-05-09T02:18:08.162Z,102839.13
2024-05-09T02:18:40.150Z,102839.44
2024-05-09T02:19:12.065Z,102832.06
2024-05-09T02:19:43.649Z,102839.44
2024-05-09T02:20:22.600Z,102835.91
2024-05-09T02:21:01.253Z,102836.22
2024-05-09T02:21:34.224Z,102835.44
2024-05-09T02:22:05.745Z,102840.88
2024-05-09T02:22:37.228Z,102839.59
2024-05-09T02:23:09.546Z,102837.66
2024-05-09T02:23:41.324Z,102837.66
2024-05-09T02:24:12.841Z,102836.06
2024-05-09T02:24:44.337Z,102836.06
2024-05-09T02:25:15.817Z,102832.53
2024-05-09T02:25:47.364Z,102836.06
2024-05-09T02:26:18.928Z,102835.25
2024-05-09T02:26:51.283Z,102832.53
2024-05-09T02:27:22.768Z,102829.81
2024-05-09T02:27:54.293Z,102836.41
2024-05-09T02:28:25.850Z,102832.09
2024-05-09T02:28:57.353Z,102833.19
2024-05-09T02:29:28.934Z,102839.44
2024-05-09T02:30:00.471Z,102835.13
2024-05-09T02:30:39.317Z,102834.63
2024-05-09T02:31:13.478Z,102838.94
2024-05-09T02:31:48.733Z,102833.81
2024-05-09T02:32:20.380Z,102836.53
2024-05-09T02:32:52.222Z,102836.88
2024-05-09T02:33:24.110Z,102833.34
2024-05-09T02:33:55.913Z,102833.66
2024-05-09T02:35:35.380Z,102832.53
2024-05-09T02:36:07.717Z,102835.25
2024-05-09T02:36:39.234Z,102830.13
2024-05-09T02:37:10.730Z,102836.69
2024-05-09T02:38:01.092Z,102835.56
2024-05-09T02:38:32.821Z,102835.09
2024-05-09T02:39:04.416Z,102833.47
2024-05-09T02:39:35.896Z,102831.06
2024-05-09T02:40:35.050Z,102836.53
2024-05-09T02:41:09.426Z,102836.53
2024-05-09T02:41:40.985Z,102840.66
2024-05-09T02:42:12.512Z,102833.63
2024-05-09T02:42:44.000Z,102835.53
2024-05-09T02:43:15.669Z,102840.19
2024-05-09T02:43:47.226Z,102840.19
2024-05-09T02:44:18.791Z,102835.09
2024-05-09T02:44:50.357Z,102837.00
2024-05-09T02:45:21.943Z,102837.00
2024-05-09T02:45:53.419Z,102835.41
2024-05-09T02:46:24.926Z,102826.44
2024-05-09T02:46:56.488Z,102834.59
2024-05-09T02:47:28.141Z,102828.34
2024-05-09T02:48:00.213Z,102831.06
2024-05-09T02:48:32.206Z,102825.16
2024-05-09T02:49:03.964Z,102828.66
2024-05-09T02:49:35.680Z,102824.34
2024-05-09T02:50:33.920Z,102828.97
2024-05-09T02:51:09.963Z,102824.34
2024-05-09T02:52:00.129Z,102824.34
2024-05-09T02:52:50.200Z,102823.53
2024-05-09T02:53:22.409Z,102829.59
2024-05-09T02:53:53.929Z,102827.19
2024-05-09T02:54:25.508Z,102829.94
2024-05-09T02:54:57.103Z,102829.13
2024-05-09T02:55:28.608Z,102831.03
2024-05-09T02:56:49.215Z,102824.00
2024-05-09T02:57:20.706Z,102830.22
2024-05-09T02:57:52.184Z,102821.59
2024-05-09T02:58:23.680Z,102820.78
2024-05-09T02:58:56.742Z,102827.84
2024-05-09T03:00:22.826Z,102819.19
2024-05-09T03:00:58.133Z,102821.91
2024-05-09T03:01:29.712Z,102823.31
2024-05-09T03:02:01.420Z,102820.63
2024-05-09T03:02:33.087Z,102823.31
2024-05-09T03:03:05.936Z,102824.13
2024-05-09T03:03:37.847Z,102825.25
2024-05-09T03:04:09.688Z,102823.69
2024-05-09T03:04:44.893Z,102826.41
2024-05-09T03:05:16.552Z,102823.97
2024-05-09T03:05:48.164Z,102827.50
2024-05-09T03:07:08.981Z,102821.28
2024-05-09T03:07:43.243Z,102824.59
2024-05-09T03:08:14.926Z,102816.75
2024-05-09T03:08:48.016Z,102824.13
2024-05-09T03:09:38.216Z,102821.72
2024-05-09T03:10:18.244Z,102814.34
2024-05-09T03:10:53.998Z,102816.28
2024-05-09T03:11:26.127Z,102820.13
2024-05-09T03:11:57.793Z,102820.41
2024-05-09T03:12:29.428Z,102820.41
2024-05-09T03:13:05.634Z,102818.81
2024-05-09T03:13:40.092Z,102818.81
2024-05-09T03:14:16.396Z,102816.41
2024-05-09T03:15:06.716Z,102812.56
2024-05-09T03:15:38.230Z,102812.88
2024-05-09T03:16:09.734Z,102817.53
2024-05-09T03:16:41.206Z,102819.44
2024-05-09T03:18:01.990Z,102813.19
2024-05-09T03:18:52.650Z,102820.25
2024-05-09T03:19:24.291Z,102809.69
2024-05-09T03:19:55.887Z,102810.78
2024-05-09T03:20:33.108Z,102812.72
2024-05-09T03:21:07.220Z,102809.19
2024-05-09T03:21:42.433Z,102819.25
2024-05-09T03:22:13.934Z,102806.81
2024-05-09T03:22:45.437Z,102817.69
2024-05-09T03:23:17.006Z,102818.81
2024-05-09T03:23:48.788Z,102814.97
2024-05-09T03:24:20.338Z,102813.38
2024-05-09T03:24:51.886Z,102818.81
2024-05-09T03:25:23.463Z,102814.16
2024-05-09T03:25:55.064Z,102808.72
2024-05-09T03:26:26.827Z,102817.19
2024-05-09T03:26:58.379Z,102818.00
2024-05-09T03:27:29.906Z,102816.41
2024-05-09T03:28:01.657Z,102814.78
2024-05-09T03:28:33.214Z,102823.75
2024-05-09T03:29:04.834Z,102812.06
2024-05-09T03:29:36.837Z,102814.00
2024-05-09T03:30:09.858Z,102814.00
2024-05-09T03:31:49.565Z,102812.88
2024-05-09T03:32:21.427Z,102812.88
2024-05-09T03:32:53.265Z,102812.88
2024-05-09T03:33:25.117Z,102805.84
2024-05-09T03:33:56.906Z,102820.53
2024-05-09T03:34:28.507Z,102821.34
2024-05-09T03:35:00.055Z,102808.88
2024-05-09T03:35:31.652Z,102824.06
2024-05-09T03:36:06.808Z,102811.59
2024-05-09T03:37:01.128Z,102813.50
2024-05-09T03:37:32.949Z,102816.22
2024-05-09T03:38:04.777Z,102817.34
2024-05-09T03:38:42.070Z,102816.53
2024-05-09T03:39:13.746Z,102820.38
2024-05-09T03:39:45.364Z,102820.38
2024-05-09T03:40:23.384Z,102804.38
2024-05-09T03:41:16.257Z,102812.53
2024-05-09T03:42:55.714Z,102817.97
2024-05-09T03:43:27.214Z,102820.19
2024-05-09T03:43:58.771Z,102816.66
2024-05-09T03:44:30.467Z,102821.28
2024-05-09T03:45:02.090Z,102813.94
2024-05-09T03:45:33.620Z,102814.22
2024-05-09T03:46:05.195Z,102813.13
2024-05-09T03:46:40.171Z,102812.34
2024-05-09T03:47:11.732Z,102807.97
2024-05-09T03:47:43.659Z,102815.34
2024-05-09T03:48:15.693Z,102811.00
2024-05-09T03:48:47.372Z,102812.94
2024-05-09T03:49:19.118Z,102808.16
2024-05-09T03:49:50.705Z,102815.00
2024-05-09T03:50:29.694Z,102818.03
2024-05-09T03:51:05.638Z,102815.63
2024-05-09T03:51:37.278Z,102813.22
2024-05-09T03:52:09.597Z,102812.41
2024-05-09T03:52:59.726Z,102816.75
2024-05-09T03:53:31.310Z,102816.25
2024-05-09T03:54:02.902Z,102809.22
2024-05-09T03:54:35.028Z,102809.22
2024-05-09T03:55:06.837Z,102810.31
2024-05-09T03:55:38.950Z,102814.63
2024-05-09T03:56:10.528Z,102808.41
2024-05-09T03:56:42.176Z,102811.44
2024-05-09T03:57:13.741Z,102806.00
2024-05-09T03:57:45.234Z,102811.44
2024-05-09T03:58:16.751Z,102812.22
2024-05-09T03:59:06.787Z,102810.81
2024-05-09T03:59:38.352Z,102816.56
2024-05-09T04:00:17.647Z,102810.31
2024-05-09T04:00:54.264Z,102809.50
2024-05-09T04:01:32.578Z,102813.03
2024-05-09T04:02:23.276Z,102816.06
2024-05-09T04:02:55.200Z,102812.53
2024-05-09T04:03:27.061Z,102814.47
2024-05-09T04:03:58.851Z,102809.81
2024-05-09T04:04:30.459Z,102817.47
2024-05-09T04:05:02.027Z,102815.56
2024-05-09T04:05:33.706Z,102812.84
2024-05-09T04:06:24.654Z,102810.44
2024-05-09T04:06:56.210Z,102816.38
2024-05-09T04:07:27.789Z,102812.06
2024-05-09T04:07:59.342Z,102811.25
2024-05-09T04:08:49.558Z,102813.66
2024-05-09T04:09:21.058Z,102812.06
2024-05-09T04:09:52.609Z,102815.88
2024-05-09T04:10:30.935Z,102819.72
2024-05-09T04:11:05.246Z,102817.47
2024-05-09T04:12:25.803Z,102819.72
2024-05-09T04:12:57.320Z,102819.72
2024-05-09T04:13:28.806Z,102817.34
2024-05-09T04:14:00.340Z,102814.91
2024-05-09T04:14:31.987Z,102813.00
2024-05-09T04:15:03.835Z,102816.53
2024-05-09T04:15:35.381Z,102816.53
2024-05-09T04:16:09.593Z,102813.00
2024-05-09T04:16:41.082Z,102821.16
2024-05-09T04:17:12.655Z,102823.06
2024-05-09T04:17:51.083Z,102822.28
2024-05-09T04:18:22.836Z,102828.50
2024-05-09T04:18:54.452Z,102814.91
2024-05-09T04:19:26.200Z,102816.84
2024-05-09T04:20:28.686Z,102832.84
2024-05-09T04:21:07.992Z,102818.44
2024-05-09T04:22:28.301Z,102819.56
2024-05-09T04:22:59.855Z,102825.28
2024-05-09T04:23:49.897Z,102814.44
2024-05-09T04:24:40.147Z,102819.88
2024-05-09T04:25:11.676Z,102816.84
2024-05-09T04:25:45.136Z,102817.94
2024-05-09T04:26:17.238Z,102824.19
2024-05-09T04:26:48.802Z,102817.16
2024-05-09T04:27:20.292Z,102822.56
2024-05-09T04:27:55.658Z,102818.75
2024-05-09T04:28:27.232Z,102823.06
2024-05-09T04:28:58.726Z,102817.63
2024-05-09T04:29:30.592Z,102822.28
2024-05-09T04:30:02.269Z,102821.16
2024-05-09T04:30:38.444Z,102820.03
2024-05-09T04:31:12.362Z,102821.97
2024-05-09T04:31:43.941Z,102820.81
2024-05-09T04:32:15.763Z,102815.38
2024-05-09T04:32:47.431Z,102820.81
2024-05-09T04:33:20.844Z,102819.25
2024-05-09T04:33:52.750Z,102821.97
2024-05-09T04:34:24.478Z,102819.25
2024-05-09T04:34:56.127Z,102808.69
2024-05-09T04:35:46.435Z,102816.03
2024-05-09T04:36:17.955Z,102824.19
2024-05-09T04:36:49.415Z,102824.50
2024-05-09T04:37:20.921Z,102812.81
2024-05-09T04:37:52.527Z,102820.97
2024-05-09T04:38:24.196Z,102822.88
2024-05-09T04:38:55.744Z,102822.09
2024-05-09T04:39:27.516Z,102824.00
2024-05-09T04:39:59.053Z,102823.19
2024-05-09T04:40:34.400Z,102822.09
2024-05-09T04:41:08.762Z,102829.94
2024-05-09T04:41:40.355Z,102828.81
2024-05-09T04:42:11.889Z,102829.63
2024-05-09T04:43:02.158Z,102822.28
2024-05-09T04:43:35.199Z,102823.88
2024-05-09T04:44:06.710Z,102820.03
2024-05-09T04:44:38.297Z,102827.06
2024-05-09T04:45:47.167Z,102822.13
2024-05-09T04:46:18.733Z,102821.81
2024-05-09T04:46:50.342Z,102823.72
2024-05-09T04:47:21.952Z,102826.13
2024-05-09T04:48:12.185Z,102824.72
2024-05-09T04:49:02.724Z,102824.72
2024-05-09T04:49:53.057Z,102824.41
2024-05-09T04:50:32.750Z,102830.31
2024-05-09T04:51:08.299Z,102831.13
2024-05-09T04:51:41.557Z,102830.81
2024-05-09T04:52:13.046Z,102828.91
2024-05-09T04:52:44.628Z,102831.63
2024-05-09T04:53:16.449Z,102828.59
2024-05-09T04:53:48.147Z,102832.13
2024-05-09T04:54:29.997Z,102827.16
2024-05-09T04:55:07.491Z,102825.25
2024-05-09T04:55:40.456Z,102834.97
2024-05-09T04:56:12.395Z,102832.25
2024-05-09T04:56:43.975Z,102839.31
2024-05-09T04:57:15.477Z,102837.38
2024-05-09T04:57:46.975Z,102839.00
2024-05-09T04:58:18.471Z,102831.97
2024-05-09T04:58:50.051Z,102831.66
2024-05-09T04:59:22.051Z,102834.09
2024-05-09T04:59:53.581Z,102837.59
2024-05-09T05:00:32.585Z,102835.38
2024-05-09T05:01:08.257Z,102834.25
2024-05-09T05:01:39.839Z,102835.88
2024-05-09T05:03:49.679Z,102835.25
2024-05-09T05:04:21.435Z,102836.06
2024-05-09T05:04:53.236Z,102837.66
2024-05-09T05:05:24.868Z,102831.41
2024-05-09T05:05:56.463Z,102833.81
2024-05-09T05:06:28.051Z,102837.03
2024-05-09T05:07:02.644Z,102843.28
2024-05-09T05:07:53.206Z,102840.69
2024-05-09T05:08:24.804Z,102840.69
2024-05-09T05:08:56.456Z,102839.59
2024-05-09T05:09:27.993Z,102842.00
2024-05-09T05:10:25.280Z,102845.22
2024-05-09T05:11:00.978Z,102830.50
2024-05-09T05:11:32.572Z,102837.53
2024-05-09T05:12:24.466Z,102844.59
2024-05-09T05:13:14.642Z,102834.19
2024-05-09T05:13:46.200Z,102836.28
2024-05-09T05:14:17.884Z,102838.69
2024-05-09T05:14:49.399Z,102839.19
2024-05-09T05:15:20.931Z,102838.06
2024-05-09T05:15:55.897Z,102837.72
2024-05-09T05:16:28.163Z,102843.97
2024-05-09T05:16:59.672Z,102838.53
2024-05-09T05:17:31.372Z,102844.47
2024-05-09T05:18:03.201Z,102843.66
2024-05-09T05:18:34.972Z,102838.72
2024-05-09T05:19:10.207Z,102846.56
2024-05-09T05:19:43.078Z,102840.31
2024-05-09T05:20:17.985Z,102844.63
2024-05-09T05:20:56.471Z,102853.28
2024-05-09T05:21:28.445Z,102848.34
2024-05-09T05:22:00.132Z,102845.63
2024-05-09T05:22:31.618Z,102853.47
2024-05-09T05:23:03.190Z,102846.91
2024-05-09T05:23:35.670Z,102846.91
2024-05-09T05:24:07.270Z,102846.28
2024-05-09T05:24:38.779Z,102851.41
2024-05-09T05:25:10.267Z,102854.59
2024-05-09T05:26:00.771Z,102849.16
2024-05-09T05:26:34.085Z,102855.56
2024-05-09T05:27:43.306Z,102853.34
2024-05-09T05:28:18.368Z,102852.69
2024-05-09T05:28:50.881Z,102852.69
2024-05-09T05:29:22.474Z,102855.91
2024-05-09T05:31:01.644Z,102853.84
2024-05-09T05:31:51.992Z,102850.00
2024-05-09T05:32:23.710Z,102846.94
2024-05-09T05:32:55.692Z,102852.88
2024-05-09T05:33:48.159Z,102843.28
2024-05-09T05:34:19.810Z,102849.22
2024-05-09T05:34:51.350Z,102850.00
2024-05-09T05:35:22.912Z,102850.50
2024-05-09T05:35:54.414Z,102849.38
2024-05-09T05:36:25.881Z,102849.06
2024-05-09T05:36:57.407Z,102853.38
2024-05-09T05:37:47.608Z,102855.47
2024-05-09T05:38:21.260Z,102851.63
2024-05-09T05:38:54.357Z,102853.25
2024-05-09T05:39:25.912Z,102856.41
2024-05-09T05:39:58.220Z,102852.56
2024-05-09T05:40:36.521Z,102853.38
2024-05-09T05:41:09.981Z,102850.34
2024-05-09T05:41:41.572Z,102853.56
2024-05-09T05:42:13.172Z,102848.91
2024-05-09T05:42:44.660Z,102849.38
2024-05-09T05:43:17.842Z,102853.41
2024-05-09T05:43:49.494Z,102848.44
2024-05-09T05:44:21.054Z,102848.13
2024-05-09T05:44:52.613Z,102854.06
2024-05-09T05:45:24.190Z,102854.06
2024-05-09T05:45:55.660Z,102851.47
2024-05-09T05:46:27.194Z,102855.47
2024-05-09T05:46:58.731Z,102847.78
2024-05-09T05:47:30.392Z,102850.50
2024-05-09T05:48:05.771Z,102847.47
2024-05-09T05:48:38.112Z,102845.22
2024-05-09T05:49:09.958Z,102851.16
2024-05-09T05:49:41.645Z,102854.69
2024-05-09T05:50:23.714Z,102848.59
2024-05-09T05:51:18.224Z,102853.72
2024-05-09T05:51:49.748Z,102853.88
2024-05-09T05:52:21.235Z,102851.63
2024-05-09T05:52:52.758Z,102852.09
2024-05-09T05:53:24.339Z,102856.44
2024-05-09T05:54:14.604Z,102853.88
2024-05-09T05:54:48.500Z,102853.88
2024-05-09T05:55:20.081Z,102859.00
2024-05-09T05:55:51.670Z,102855.47
2024-05-09T05:56:23.292Z,102854.34
2024-05-09T05:56:54.781Z,102849.38
2024-05-09T05:57:26.285Z,102853.72
2024-05-09T05:57:58.191Z,102848.75
2024-05-09T05:58:29.678Z,102851.94
2024-05-09T05:59:01.263Z,102857.84
2024-05-09T05:59:33.026Z,102852.88
2024-05-09T06:00:09.427Z,102854.47
2024-05-09T06:00:42.413Z,102852.72
2024-05-09T06:01:14.522Z,102851.59
2024-05-09T06:01:46.202Z,102853.19
2024-05-09T06:02:17.867Z,102848.56
2024-05-09T06:02:49.646Z,102849.03
2024-05-09T06:03:21.290Z,102850.31
2024-05-09T06:03:52.932Z,102850.00
2024-05-09T06:04:24.512Z,102850.00
2024-05-09T06:04:56.174Z,102846.16
2024-05-09T06:05:28.573Z,102843.06
2024-05-09T06:06:02.967Z,102841.94
2024-05-09T06:06:34.565Z,102844.81
2024-05-09T06:07:06.085Z,102849.97
2024-05-09T06:07:37.640Z,102851.56
2024-05-09T06:08:09.506Z,102850.13
2024-05-09T06:08:41.139Z,102845.94
2024-05-09T06:09:12.748Z,102845.63
2024-05-09T06:09:46.064Z,102848.03
2024-05-09T06:10:25.372Z,102846.59
2024-05-09T06:10:58.137Z,102847.84
2024-05-09T06:11:29.884Z,102849.94
2024-05-09T06:12:01.695Z,102846.88
2024-05-09T06:12:33.375Z,102844.16
2024-05-09T06:13:04.958Z,102839.97
2024-05-09T06:13:36.449Z,102847.84
2024-05-09T06:14:08.917Z,102847.84
2024-05-09T06:14:41.020Z,102836.94
2024-05-09T06:15:12.582Z,102849.44
2024-05-09T06:15:44.220Z,102842.88
2024-05-09T06:17:04.871Z,102843.81
2024-05-09T06:17:36.547Z,102843.50
2024-05-09T06:18:10.214Z,102842.38
2024-05-09T06:19:01.471Z,102844.75
2024-05-09T06:19:33.219Z,102840.25
2024-05-09T06:20:09.082Z,102837.19
2024-05-09T06:20:44.884Z,102838.47
2024-05-09T06:21:17.531Z,102842.47
2024-05-09T06:21:49.179Z,102833.97
2024-05-09T06:22:20.671Z,102843.09
2024-05-09T06:22:52.190Z,102841.97
2024-05-09T06:23:23.698Z,102839.69
2024-05-09T06:23:55.226Z,102841.28
2024-05-09T06:24:26.941Z,102835.97
2024-05-09T06:24:58.453Z,102839.97
2024-05-09T06:25:30.022Z,102846.72
2024-05-09T06:26:01.612Z,102845.59
2024-05-09T06:26:33.213Z,102841.72
2024-05-09T06:27:06.067Z,102841.41
2024-05-09T06:27:37.638Z,102840.59
2024-05-09T06:28:12.364Z,102838.66
2024-05-09T06:28:43.925Z,102832.09
2024-05-09T06:29:15.584Z,102828.34
2024-05-09T06:29:47.136Z,102840.53
2024-05-09T06:30:25.597Z,102833.94
2024-05-09T06:31:03.043Z,102836.81
2024-05-09T06:31:43.920Z,102838.56
2024-05-09T06:32:16.002Z,102833.09
2024-05-09T06:33:07.205Z,102837.91
2024-05-09T06:33:39.156Z,102840.00
2024-05-09T06:34:10.914Z,102834.97
2024-05-09T06:34:43.117Z,102835.44
2024-05-09T06:35:14.725Z,102836.72
2024-05-09T06:35:46.455Z,102836.72
2024-05-09T06:36:38.097Z,102833.66
2024-05-09T06:37:09.647Z,102833.66
2024-05-09T06:37:41.179Z,102840.72
2024-05-09T06:38:12.958Z,102837.66
2024-05-09T06:38:44.736Z,102831.88
2024-05-09T06:39:34.813Z,102832.81
2024-05-09T06:40:07.623Z,102830.53
2024-05-09T06:40:43.646Z,102835.31
2024-05-09T06:41:16.034Z,102833.53
2024-05-09T06:41:47.561Z,102827.41
2024-05-09T06:42:19.077Z,102826.75
2024-05-09T06:42:50.712Z,102830.75
2024-05-09T06:43:22.394Z,102832.81
2024-05-09T06:43:53.911Z,102832.47
2024-05-09T06:44:25.544Z,102832.13
2024-05-09T06:44:57.138Z,102834.84
2024-05-09T06:45:28.671Z,102830.97
2024-05-09T06:46:00.167Z,102831.78